createdAt,value
2018-02-18T00:00:43.490Z,38.22
2018-02-18T00:03:10.999Z,39.63
2018-02-18T00:05:39.282Z,34.53
2018-02-18T00:08:07.563Z,32.28
2018-02-18T00:10:35.091Z,40.65
2018-02-18T00:13:03.379Z,36.45
2018-02-18T00:15:31.675Z,36.40
2018-02-18T00:17:59.964Z,42.08
2018-02-18T00:20:27.472Z,45.50
2018-02-18T00:22:55.000Z,38.45
2018-02-18T00:25:22.566Z,39.88
2018-02-18T00:27:50.091Z,47.08
2018-02-18T00:30:17.616Z,45.63
2018-02-18T00:32:45.112Z,48.35
2018-02-18T00:35:12.647Z,46.95
2018-02-18T00:37:40.919Z,42.60
2018-02-18T00:40:09.192Z,40.97
2018-02-18T00:42:37.484Z,40.45
2018-02-18T00:45:05.742Z,41.37
2018-02-18T00:47:34.095Z,42.17
2018-02-18T00:50:02.398Z,35.10
2018-02-18T00:52:30.687Z,43.85
2018-02-18T00:54:58.974Z,40.53
2018-02-18T00:57:26.519Z,40.88
2018-02-18T00:59:54.824Z,41.42
2018-02-18T01:02:22.348Z,39.42
2018-02-18T01:04:50.665Z,39.08
2018-02-18T01:07:18.176Z,42.50
2018-02-18T01:09:45.680Z,36.22
2018-02-18T01:12:13.209Z,44.10
2018-02-18T01:14:43.761Z,39.90
2018-02-18T01:17:14.906Z,35.13
2018-02-18T01:19:42.401Z,36.85
2018-02-18T01:22:09.915Z,38.95
2018-02-18T01:24:37.451Z,44.08
2018-02-18T01:27:05.730Z,38.05
2018-02-18T01:29:34.587Z,40.53
2018-02-18T01:32:02.095Z,40.17
2018-02-18T01:34:29.609Z,38.50
2018-02-18T01:36:57.128Z,39.65
2018-02-18T01:39:24.730Z,41.92
2018-02-18T01:41:52.231Z,42.70
2018-02-18T01:44:19.768Z,48.67
2018-02-18T01:46:48.041Z,43.17
2018-02-18T01:49:15.595Z,47.40
2018-02-18T01:51:43.094Z,41.90
2018-02-18T01:54:10.614Z,41.53
2018-02-18T01:56:38.124Z,47.40
2018-02-18T01:59:05.630Z,40.75
2018-02-18T02:01:33.932Z,46.72
2018-02-18T02:04:01.435Z,74.22
2018-02-18T02:06:28.956Z,103.70
2018-02-18T02:08:56.480Z,122.80
2018-02-18T02:11:24.023Z,125.72
2018-02-18T02:13:51.523Z,96.40
2018-02-18T02:16:19.031Z,83.43
2018-02-18T02:18:46.555Z,85.87
2018-02-18T02:21:14.054Z,95.00
2018-02-18T02:23:41.592Z,59.88
2018-02-18T02:26:09.128Z,61.58
2018-02-18T02:28:36.638Z,55.03
2018-02-18T02:31:04.150Z,53.35
2018-02-18T02:33:31.661Z,47.25
2018-02-18T02:35:59.200Z,45.05
2018-02-18T02:38:26.698Z,45.25
2018-02-18T02:40:55.003Z,46.22
2018-02-18T02:43:22.528Z,49.50
2018-02-18T02:45:50.790Z,48.10
2018-02-18T02:48:19.102Z,48.28
2018-02-18T02:50:46.627Z,48.72
2018-02-18T02:53:14.124Z,46.03
2018-02-18T02:55:41.741Z,45.78
2018-02-18T02:58:09.239Z,47.50
2018-02-18T03:00:36.728Z,49.28
2018-02-18T03:03:04.270Z,47.45
2018-02-18T03:05:31.771Z,57.55
2018-02-18T03:07:59.288Z,47.53
2018-02-18T03:10:26.805Z,51.72
2018-02-18T03:12:55.117Z,50.00
2018-02-18T03:15:22.630Z,57.38
2018-02-18T03:17:50.150Z,57.85
2018-02-18T03:20:17.671Z,188.30
2018-02-18T03:22:45.187Z,93.85
2018-02-18T03:25:12.728Z,83.60
2018-02-18T03:27:40.230Z,85.10
2018-02-18T03:30:08.549Z,71.87
2018-02-18T03:32:36.084Z,141.80
2018-02-18T03:35:03.603Z,86.93
2018-02-18T03:37:31.131Z,79.57
2018-02-18T03:39:58.664Z,111.22
2018-02-18T03:42:26.178Z,135.23
2018-02-18T03:44:53.684Z,89.00
2018-02-18T03:47:21.238Z,101.32
2018-02-18T03:49:48.745Z,112.55
2018-02-18T03:52:16.254Z,79.28
2018-02-18T03:54:43.772Z,92.68
2018-02-18T03:57:11.283Z,122.25
2018-02-18T03:59:38.799Z,82.45
2018-02-18T04:02:06.294Z,75.75
2018-02-18T04:04:33.816Z,98.75
2018-02-18T04:07:02.134Z,53.33
2018-02-18T04:09:29.677Z,99.10
2018-02-18T04:11:57.204Z,57.72
2018-02-18T04:14:24.725Z,48.67
2018-02-18T04:16:52.251Z,78.90
2018-02-18T04:19:19.769Z,115.62
2018-02-18T04:21:47.288Z,40.97
2018-02-18T04:24:14.823Z,77.68
2018-02-18T04:26:43.087Z,66.18
2018-02-18T04:29:11.369Z,62.25
2018-02-18T04:31:39.653Z,54.53
2018-02-18T04:34:07.933Z,41.00
2018-02-18T04:36:35.454Z,48.90
2018-02-18T04:39:03.002Z,99.45
2018-02-18T04:41:30.525Z,48.95
2018-02-18T04:43:58.048Z,107.07
2018-02-18T04:46:25.541Z,36.63
2018-02-18T04:48:53.055Z,86.15
2018-02-18T04:51:20.546Z,68.87
2018-02-18T04:53:48.059Z,48.13
2018-02-18T04:56:15.567Z,51.50
2018-02-18T04:58:43.079Z,46.10
2018-02-18T05:01:10.594Z,45.03
2018-02-18T05:03:38.128Z,47.80
2018-02-18T05:06:06.410Z,42.70
2018-02-18T05:08:33.915Z,42.83
2018-02-18T05:11:01.457Z,47.80
2018-02-18T05:13:28.965Z,46.92
2018-02-18T05:15:57.232Z,45.40
2018-02-18T05:18:24.776Z,42.55
2018-02-18T05:20:52.282Z,53.35
2018-02-18T05:23:19.807Z,53.60
2018-02-18T05:25:47.313Z,84.25
2018-02-18T05:28:14.830Z,144.13
2018-02-18T05:30:42.366Z,106.78
2018-02-18T05:33:09.881Z,43.20
2018-02-18T05:35:37.382Z,53.38
2018-02-18T05:38:04.925Z,47.42
2018-02-18T05:40:32.409Z,84.60
2018-02-18T05:42:59.954Z,56.20
2018-02-18T05:45:27.455Z,43.72
2018-02-18T05:47:55.725Z,46.72
2018-02-18T05:50:24.038Z,43.75
2018-02-18T05:52:51.578Z,43.65
2018-02-18T05:55:19.080Z,43.35
2018-02-18T05:57:46.614Z,48.65
2018-02-18T06:00:14.907Z,40.22
2018-02-18T06:02:42.428Z,42.72
2018-02-18T06:05:09.947Z,44.20
2018-02-18T06:07:37.638Z,41.08
2018-02-18T06:10:05.919Z,42.08
2018-02-18T06:12:34.225Z,42.78
2018-02-18T06:15:01.727Z,36.33
2018-02-18T06:17:29.266Z,42.25
2018-02-18T06:19:56.796Z,42.10
2018-02-18T06:22:24.300Z,41.67
2018-02-18T06:24:51.833Z,41.63
2018-02-18T06:27:19.336Z,42.47
2018-02-18T06:29:47.636Z,39.63
2018-02-18T06:32:15.137Z,39.88
2018-02-18T06:34:42.633Z,43.30
2018-02-18T06:37:10.925Z,40.25
2018-02-18T06:39:38.439Z,35.55
2018-02-18T06:42:05.936Z,38.22
2018-02-18T06:44:33.468Z,33.80
2018-02-18T06:47:01.915Z,40.10
2018-02-18T06:49:29.427Z,35.92
2018-02-18T06:51:57.721Z,36.58
2018-02-18T06:54:25.251Z,36.08
2018-02-18T06:56:53.531Z,41.50
2018-02-18T06:59:21.830Z,43.95
2018-02-18T07:01:49.345Z,42.90
2018-02-18T07:04:16.858Z,40.70
2018-02-18T07:06:44.387Z,39.13
2018-02-18T07:09:12.667Z,38.25
2018-02-18T07:11:40.973Z,43.22
2018-02-18T07:14:08.473Z,40.80
2018-02-18T07:16:35.996Z,37.90
2018-02-18T07:19:03.488Z,38.90
2018-02-18T07:21:31.011Z,41.88
2018-02-18T07:23:58.542Z,43.60
2018-02-18T07:26:26.067Z,43.45
2018-02-18T07:28:53.603Z,37.63
2018-02-18T07:31:21.116Z,42.62
2018-02-18T07:33:48.612Z,45.17
2018-02-18T07:36:16.127Z,40.28
2018-02-18T07:38:44.386Z,41.83
2018-02-18T07:41:12.673Z,82.80
2018-02-18T07:43:40.946Z,53.60
2018-02-18T07:46:08.466Z,45.17
2018-02-18T07:48:35.967Z,93.32
2018-02-18T07:51:03.471Z,51.53
2018-02-18T07:53:30.989Z,97.00
2018-02-18T07:55:58.540Z,81.78
2018-02-18T07:58:26.814Z,56.97
2018-02-18T08:00:55.103Z,67.87
2018-02-18T08:03:23.401Z,74.75
2018-02-18T08:05:50.933Z,51.33
2018-02-18T08:08:18.469Z,49.47
2018-02-18T08:10:45.980Z,46.78
2018-02-18T08:13:14.224Z,45.80
2018-02-18T08:15:41.757Z,49.45
2018-02-18T08:18:09.280Z,51.85
2018-02-18T08:20:36.793Z,51.88
2018-02-18T08:23:05.057Z,56.08
2018-02-18T08:25:33.361Z,51.37
2018-02-18T08:28:00.876Z,60.35
2018-02-18T08:30:28.380Z,57.00
2018-02-18T08:32:56.657Z,53.17
2018-02-18T08:35:24.160Z,59.85
2018-02-18T08:37:51.689Z,52.17
2018-02-18T08:40:19.203Z,55.53
2018-02-18T08:42:47.511Z,60.10
2018-02-18T08:45:15.068Z,57.83
2018-02-18T08:47:42.593Z,60.80
2018-02-18T08:50:10.936Z,56.35
2018-02-18T08:52:38.487Z,59.15
2018-02-18T08:55:06.071Z,56.70
2018-02-18T08:57:33.599Z,61.05
2018-02-18T09:00:01.253Z,53.92
2018-02-18T09:02:29.551Z,56.80
2018-02-18T09:04:57.043Z,53.83
2018-02-18T09:07:24.575Z,65.03
2018-02-18T09:09:52.093Z,62.55
2018-02-18T09:12:19.627Z,69.45
2018-02-18T09:14:47.929Z,61.88
2018-02-18T09:17:15.485Z,60.72
2018-02-18T09:19:43.025Z,70.18
2018-02-18T09:22:11.288Z,54.80
2018-02-18T09:24:38.817Z,55.67
2018-02-18T09:27:06.340Z,49.80
2018-02-18T09:29:33.886Z,57.38
2018-02-18T09:32:02.205Z,63.92
2018-02-18T09:34:29.760Z,71.12
2018-02-18T09:36:57.303Z,63.03
2018-02-18T09:39:24.825Z,77.57
2018-02-18T09:41:52.359Z,66.47
2018-02-18T09:44:19.853Z,73.82
2018-02-18T09:46:48.153Z,57.90
2018-02-18T09:49:15.672Z,55.70
2018-02-18T09:51:43.199Z,58.75
2018-02-18T09:54:10.703Z,58.00
2018-02-18T09:56:39.011Z,58.38
2018-02-18T09:59:06.532Z,56.45
2018-02-18T10:01:34.835Z,55.95
2018-02-18T10:04:02.372Z,56.08
2018-02-18T10:06:30.692Z,55.25
2018-02-18T10:08:58.228Z,56.45
2018-02-18T10:11:25.739Z,54.85
2018-02-18T10:13:53.277Z,68.62
2018-02-18T10:16:20.816Z,65.22
2018-02-18T10:18:48.329Z,65.87
2018-02-18T10:21:15.840Z,64.93
2018-02-18T10:23:43.339Z,61.88
2018-02-18T10:26:10.853Z,61.53
2018-02-18T10:28:38.352Z,64.18
2018-02-18T10:31:06.827Z,59.33
2018-02-18T10:33:34.337Z,61.70
2018-02-18T10:36:01.919Z,64.35
2018-02-18T10:38:30.118Z,60.78
2018-02-18T10:40:57.659Z,60.50
2018-02-18T10:43:28.139Z,64.30
2018-02-18T10:45:56.444Z,60.22
2018-02-18T10:48:24.075Z,57.70
2018-02-18T10:50:52.379Z,58.50
2018-02-18T10:53:19.911Z,59.15
2018-02-18T10:55:48.203Z,56.65
2018-02-18T10:58:15.736Z,63.83
2018-02-18T11:00:43.267Z,60.17
2018-02-18T11:03:10.988Z,60.88
2018-02-18T11:05:38.530Z,61.30
2018-02-18T11:11:12.279Z,65.45
2018-02-18T11:13:39.802Z,59.35
2018-02-18T11:16:08.081Z,58.97
2018-02-18T11:18:36.393Z,60.53
2018-02-18T11:21:03.904Z,60.35
2018-02-18T11:23:31.440Z,67.62
2018-02-18T11:25:58.940Z,59.08
2018-02-18T11:28:31.016Z,62.97
2018-02-18T11:30:58.574Z,63.00
2018-02-18T11:33:26.164Z,60.97
2018-02-18T11:35:53.763Z,53.55
2018-02-18T11:38:21.215Z,56.28
2018-02-18T11:40:48.721Z,58.72
2018-02-18T11:43:16.265Z,55.03
2018-02-18T11:45:43.853Z,55.53
2018-02-18T11:48:11.369Z,54.40
2018-02-18T11:50:39.658Z,57.45
2018-02-18T11:53:07.976Z,52.70
2018-02-18T11:55:35.486Z,52.70
2018-02-18T11:58:03.784Z,56.47
2018-02-18T12:00:31.324Z,53.53
2018-02-18T12:02:59.647Z,53.97
2018-02-18T12:05:27.910Z,56.95
2018-02-18T12:07:55.447Z,58.70
2018-02-18T12:10:22.992Z,55.20
2018-02-18T12:12:51.336Z,58.15
2018-02-18T12:15:18.856Z,58.13
2018-02-18T12:17:46.395Z,49.72
2018-02-18T12:20:13.913Z,55.63
2018-02-18T12:22:41.456Z,50.78
2018-02-18T12:25:08.978Z,55.25
2018-02-18T12:27:36.493Z,57.62
2018-02-18T12:30:04.031Z,55.40
2018-02-18T12:32:31.561Z,54.00
2018-02-18T12:34:59.106Z,57.78
2018-02-18T12:37:27.415Z,57.20
2018-02-18T12:39:54.948Z,61.88
2018-02-18T12:42:22.539Z,56.58
2018-02-18T12:44:50.054Z,55.08
2018-02-18T12:47:18.364Z,54.20
2018-02-18T12:49:45.868Z,55.65
2018-02-18T12:52:13.395Z,60.60
2018-02-18T12:54:40.933Z,52.97
2018-02-18T12:57:08.481Z,56.15
2018-02-18T12:59:36.001Z,52.70
2018-02-18T13:02:03.629Z,56.63
2018-02-18T13:04:31.342Z,54.08
2018-02-18T13:06:59.615Z,51.63
2018-02-18T13:09:27.967Z,49.80
2018-02-18T13:11:55.512Z,60.60
2018-02-18T13:14:23.100Z,56.55
2018-02-18T13:16:50.606Z,50.20
2018-02-18T13:19:18.897Z,51.78
2018-02-18T13:21:46.444Z,49.05
2018-02-18T13:24:13.958Z,50.83
2018-02-18T13:26:42.645Z,50.05
2018-02-18T13:29:11.077Z,51.43
2018-02-18T13:31:38.730Z,52.60
2018-02-18T13:34:06.322Z,50.77
2018-02-18T13:36:33.829Z,51.10
2018-02-18T13:39:04.520Z,51.83
2018-02-18T13:41:32.077Z,53.13
2018-02-18T13:43:59.614Z,50.27
2018-02-18T13:46:27.142Z,56.55
2018-02-18T13:48:54.797Z,47.88
2018-02-18T13:51:22.371Z,48.72
2018-02-18T13:53:49.911Z,53.80
2018-02-18T13:56:17.480Z,50.05
2018-02-18T13:58:45.033Z,52.95
2018-02-18T14:01:12.616Z,52.67
2018-02-18T14:03:40.141Z,46.42
2018-02-18T14:06:08.478Z,45.17
2018-02-18T14:08:35.994Z,48.27
2018-02-18T14:11:03.528Z,49.50
2018-02-18T14:13:31.868Z,52.13
2018-02-18T14:15:59.428Z,44.30
2018-02-18T14:18:26.981Z,47.62
2018-02-18T14:20:54.510Z,50.47
2018-02-18T14:23:22.083Z,46.33
2018-02-18T14:25:49.605Z,48.45
2018-02-18T14:28:17.891Z,45.42
2018-02-18T14:30:45.453Z,49.63
2018-02-18T14:33:12.976Z,48.35
2018-02-18T14:35:40.538Z,52.50
2018-02-18T14:38:08.102Z,49.45
2018-02-18T14:40:35.668Z,45.40
2018-02-18T14:43:15.924Z,42.88
2018-02-18T14:45:56.164Z,50.38
2018-02-18T14:51:39.089Z,54.63
2018-02-18T14:54:18.686Z,51.78
2018-02-18T14:56:47.769Z,52.42
2018-02-18T14:59:15.315Z,57.17
2018-02-18T15:01:42.843Z,51.60
2018-02-18T15:04:10.359Z,50.15
2018-02-18T15:06:37.917Z,50.20
2018-02-18T15:09:05.431Z,51.15
2018-02-18T15:11:32.979Z,54.00
2018-02-18T15:14:00.508Z,47.53
2018-02-18T15:16:28.828Z,47.95
2018-02-18T15:18:56.401Z,50.17
2018-02-18T15:21:23.899Z,49.67
2018-02-18T15:23:51.430Z,53.63
2018-02-18T15:26:19.737Z,50.25
2018-02-18T15:28:47.291Z,49.65
2018-02-18T15:31:14.799Z,54.60
2018-02-18T15:33:42.354Z,50.65
2018-02-18T15:36:09.878Z,48.87
2018-02-18T15:38:37.429Z,53.70
2018-02-18T15:41:04.944Z,46.00
2018-02-18T15:43:32.507Z,55.35
2018-02-18T15:46:00.068Z,46.37
2018-02-18T15:48:27.636Z,50.08
2018-02-18T15:50:55.928Z,46.78
2018-02-18T15:53:23.442Z,48.30
2018-02-18T15:55:50.989Z,50.78
2018-02-18T15:58:18.501Z,48.60
2018-02-18T16:00:46.055Z,46.10
2018-02-18T16:03:14.350Z,48.22
2018-02-18T16:05:41.905Z,45.92
2018-02-18T16:08:09.423Z,41.22
2018-02-18T16:10:36.958Z,48.60
2018-02-18T16:13:04.496Z,40.22
2018-02-18T16:15:32.037Z,47.25
2018-02-18T16:18:00.355Z,41.90
2018-02-18T16:20:27.876Z,43.85
2018-02-18T16:22:55.467Z,49.45
2018-02-18T16:25:23.032Z,44.42
2018-02-18T16:27:50.548Z,44.30
2018-02-18T16:30:18.954Z,46.83
2018-02-18T16:32:46.528Z,45.95
2018-02-18T16:35:14.075Z,43.50
2018-02-18T16:37:41.573Z,39.75
2018-02-18T16:40:09.109Z,44.63
2018-02-18T16:42:36.661Z,45.50
2018-02-18T16:45:04.185Z,41.47
2018-02-18T16:47:31.710Z,46.00
2018-02-18T16:49:59.224Z,42.38
2018-02-18T16:52:26.739Z,40.78
2018-02-18T16:54:55.058Z,47.45
2018-02-18T16:57:22.578Z,48.45
2018-02-18T16:59:50.868Z,50.85
2018-02-18T17:02:18.415Z,47.65
2018-02-18T17:04:46.686Z,42.67
2018-02-18T17:07:14.972Z,46.22
2018-02-18T17:09:43.283Z,43.35
2018-02-18T17:12:10.832Z,50.40
2018-02-18T17:14:38.325Z,51.67
2018-02-18T17:17:06.592Z,51.28
2018-02-18T17:19:34.149Z,61.30
2018-02-18T17:22:01.718Z,62.65
2018-02-18T17:24:29.262Z,60.90
2018-02-18T17:26:56.790Z,60.38
2018-02-18T17:29:25.121Z,61.60
2018-02-18T17:31:53.376Z,71.65
2018-02-18T17:34:20.909Z,69.45
2018-02-18T17:36:48.442Z,64.28
2018-02-18T17:39:16.743Z,62.22
2018-02-18T17:41:44.260Z,65.75
2018-02-18T17:44:11.824Z,70.72
2018-02-18T17:46:39.375Z,62.80
2018-02-18T17:49:06.874Z,65.50
2018-02-18T17:51:34.453Z,61.75
2018-02-18T17:54:02.688Z,63.60
2018-02-18T17:56:30.975Z,63.33
2018-02-18T17:58:59.251Z,58.47
2018-02-18T18:01:27.564Z,53.92
2018-02-18T18:03:55.494Z,69.10
2018-02-18T18:06:23.524Z,61.78
2018-02-18T18:08:51.267Z,54.58
2018-02-18T18:11:18.934Z,54.95
2018-02-18T18:13:46.537Z,56.88
2018-02-18T18:16:14.071Z,52.70
2018-02-18T18:18:41.650Z,56.78
2018-02-18T18:21:09.243Z,56.37
2018-02-18T18:23:37.508Z,57.17
2018-02-18T18:26:05.836Z,66.25
2018-02-18T18:28:33.479Z,54.15
2018-02-18T18:31:01.363Z,58.87
2018-02-18T18:33:29.025Z,60.58
2018-02-18T18:35:56.589Z,56.15
2018-02-18T18:38:24.123Z,54.65
2018-02-18T18:40:51.901Z,54.60
2018-02-18T18:43:19.428Z,56.88
2018-02-18T18:45:47.007Z,53.78
2018-02-18T18:48:14.552Z,51.95
2018-02-18T18:50:42.553Z,57.05
2018-02-18T18:53:10.233Z,53.25
2018-02-18T18:55:37.818Z,58.10
2018-02-18T18:58:06.122Z,60.08
2018-02-18T19:00:33.799Z,55.92
2018-02-18T19:03:01.349Z,61.20
2018-02-18T19:05:28.863Z,59.47
2018-02-18T19:07:57.153Z,52.28
2018-02-18T19:10:25.435Z,62.42
2018-02-18T19:12:53.751Z,60.35
2018-02-18T19:15:21.648Z,59.42
2018-02-18T19:17:49.444Z,54.50
2018-02-18T19:20:17.028Z,58.38
2018-02-18T19:22:44.707Z,58.67
2018-02-18T19:25:12.429Z,57.55
2018-02-18T19:27:39.964Z,59.28
2018-02-18T19:30:07.559Z,60.17
2018-02-18T19:32:35.141Z,60.05
2018-02-18T19:35:02.748Z,58.15
2018-02-18T19:37:31.091Z,54.08
2018-02-18T19:39:58.674Z,58.45
2018-02-18T19:42:26.194Z,62.97
2018-02-18T19:44:53.876Z,74.15
2018-02-18T19:47:21.400Z,71.40
2018-02-18T19:49:49.004Z,63.85
2018-02-18T19:52:16.557Z,56.72
2018-02-18T19:54:44.483Z,59.75
2018-02-18T19:57:12.071Z,63.03
2018-02-18T19:59:39.629Z,66.03
2018-02-18T20:02:07.158Z,64.95
2018-02-18T20:04:35.126Z,66.15
2018-02-18T20:07:03.833Z,58.67
2018-02-18T20:09:32.254Z,61.90
2018-02-18T20:12:00.559Z,64.60
2018-02-18T20:20:41.056Z,58.38
2018-02-18T20:23:09.375Z,64.87
2018-02-18T20:25:36.967Z,60.20
2018-02-18T20:28:04.519Z,64.40
2018-02-18T20:30:32.224Z,61.35
2018-02-18T20:33:00.701Z,64.62
2018-02-18T20:35:28.508Z,65.05
2018-02-18T20:37:56.112Z,57.08
2018-02-18T20:40:23.625Z,67.10
2018-02-18T20:42:51.638Z,62.22
2018-02-18T20:45:19.268Z,63.08
2018-02-18T20:47:47.033Z,69.10
2018-02-18T20:50:14.656Z,61.97
2018-02-18T20:52:42.328Z,61.97
2018-02-18T20:55:10.790Z,64.95
2018-02-18T20:57:38.706Z,64.90
2018-02-18T21:00:06.297Z,60.58
2018-02-18T21:02:36.372Z,66.72
2018-02-18T21:05:03.912Z,63.83
2018-02-18T21:07:31.509Z,65.75
2018-02-18T21:09:59.347Z,66.35
2018-02-18T21:12:27.060Z,65.97
2018-02-18T21:14:54.898Z,63.22
2018-02-18T21:17:23.215Z,64.45
2018-02-18T21:19:51.481Z,58.20
2018-02-18T21:22:19.298Z,63.70
2018-02-18T21:24:46.877Z,60.67
2018-02-18T21:27:14.673Z,62.10
2018-02-18T21:29:42.248Z,62.35
2018-02-18T21:32:10.583Z,63.35
2018-02-18T21:34:38.146Z,59.70
2018-02-18T21:37:06.804Z,64.00
2018-02-18T21:39:34.637Z,62.72
2018-02-18T21:42:02.220Z,56.58
2018-02-18T21:44:29.956Z,58.22
2018-02-18T21:46:58.311Z,59.45
2018-02-18T21:49:26.676Z,58.50
2018-02-18T21:51:54.196Z,60.70
2018-02-18T21:57:00.761Z,56.75
2018-02-18T21:59:28.365Z,64.12
2018-02-18T22:01:55.939Z,64.87
2018-02-18T22:04:23.545Z,57.28
2018-02-18T22:06:52.106Z,56.47
2018-02-18T22:09:20.034Z,65.68
2018-02-18T22:11:47.598Z,69.35
2018-02-18T22:14:15.114Z,64.68
2018-02-18T22:16:43.563Z,61.15
2018-02-18T22:19:11.545Z,60.92
2018-02-18T22:21:39.437Z,66.55
2018-02-18T22:24:07.804Z,65.87
2018-02-18T22:26:36.112Z,71.05
2018-02-18T22:29:03.629Z,71.05
2018-02-18T22:31:31.449Z,69.85
2018-02-18T22:33:59.087Z,65.50
2018-02-18T22:36:26.646Z,65.80
2018-02-18T22:38:54.160Z,67.18
2018-02-18T22:41:21.679Z,60.80
2018-02-18T22:43:49.184Z,66.68
2018-02-18T22:46:16.712Z,59.15
2018-02-18T22:48:44.206Z,62.40
2018-02-18T22:51:11.745Z,66.25
2018-02-18T22:53:39.238Z,59.42
2018-02-18T22:56:07.500Z,67.72
2018-02-18T22:58:35.784Z,69.55
2018-02-18T23:01:04.073Z,63.67
2018-02-18T23:03:32.350Z,64.45
2018-02-18T23:06:00.629Z,65.40
2018-02-18T23:08:28.156Z,64.05
2018-02-18T23:10:55.652Z,63.47
2018-02-18T23:13:23.179Z,65.22
2018-02-18T23:15:51.441Z,58.95
2018-02-18T23:18:18.970Z,64.57
2018-02-18T23:20:58.360Z,61.10
2018-02-18T23:23:26.639Z,61.10
2018-02-18T23:25:54.946Z,60.88
2018-02-18T23:28:23.223Z,59.67
2018-02-18T23:30:50.727Z,64.45
2018-02-18T23:33:18.240Z,56.47
2018-02-18T23:35:45.755Z,59.78
2018-02-18T23:38:13.256Z,57.15
2018-02-18T23:40:40.782Z,56.40
2018-02-18T23:43:09.048Z,59.50
2018-02-18T23:45:36.531Z,57.38
2018-02-18T23:48:04.047Z,60.38
2018-02-18T23:50:31.667Z,57.22
2018-02-18T23:52:59.181Z,67.95
2018-02-18T23:55:27.479Z,57.65
2018-02-18T23:57:55.011Z,53.40
